createdAt,value
2018-01-23T00:02:20.865Z,50.50
2018-01-23T00:04:48.910Z,52.30
2018-01-23T00:07:16.360Z,44.93
2018-01-23T00:09:43.812Z,47.07
2018-01-23T00:12:11.907Z,48.70
2018-01-23T00:14:39.360Z,48.57
2018-01-23T00:17:06.813Z,50.87
2018-01-23T00:19:34.598Z,50.37
2018-01-23T00:22:02.053Z,52.30
2018-01-23T00:24:29.516Z,58.77
2018-01-23T00:26:57.277Z,55.23
2018-01-23T00:29:24.813Z,53.10
2018-01-23T00:31:52.266Z,61.97
2018-01-23T00:34:20.281Z,55.77
2018-01-23T00:36:47.748Z,63.37
2018-01-23T00:39:15.220Z,62.67
2018-01-23T00:41:42.967Z,61.23
2018-01-23T00:44:10.429Z,62.63
2018-01-23T00:46:37.888Z,64.17
2018-01-23T00:49:06.218Z,62.90
2018-01-23T00:51:33.682Z,57.07
2018-01-23T00:54:01.142Z,59.57
2018-01-23T00:56:28.952Z,51.70
2018-01-23T00:58:56.977Z,63.20
2018-01-23T01:01:25.498Z,64.60
2018-01-23T01:03:53.484Z,63.07
2018-01-23T01:06:20.939Z,58.43
2018-01-23T01:08:48.408Z,54.40
2018-01-23T01:11:16.172Z,57.83
2018-01-23T01:13:43.690Z,53.93
2018-01-23T01:16:11.150Z,60.03
2018-01-23T01:18:39.167Z,56.23
2018-01-23T01:21:06.623Z,61.57
2018-01-23T01:23:34.074Z,59.70
2018-01-23T01:26:01.774Z,58.73
2018-01-23T01:28:29.232Z,54.17
2018-01-23T01:30:56.689Z,56.43
2018-01-23T01:33:24.518Z,52.67
2018-01-23T01:35:51.980Z,52.00
2018-01-23T01:38:19.442Z,48.20
2018-01-23T01:40:47.228Z,50.13
2018-01-23T01:43:14.688Z,49.40
2018-01-23T01:45:42.144Z,49.80
2018-01-23T01:48:09.926Z,47.73
2018-01-23T01:50:38.069Z,51.10
2018-01-23T01:53:05.545Z,52.90
2018-01-23T01:55:33.529Z,55.00
2018-01-23T01:58:00.989Z,57.00
2018-01-23T02:00:28.441Z,55.50
2018-01-23T02:02:56.152Z,56.17
2018-01-23T02:05:23.618Z,45.37
2018-01-23T02:07:51.073Z,42.20
2018-01-23T02:10:18.891Z,49.87
2018-01-23T02:12:46.340Z,50.40
2018-01-23T02:15:13.802Z,52.23
2018-01-23T02:17:41.505Z,51.13
2018-01-23T02:20:08.966Z,57.80
2018-01-23T02:22:36.434Z,55.13
2018-01-23T02:25:04.577Z,52.37
2018-01-23T02:27:32.033Z,55.37
2018-01-23T02:29:59.488Z,53.40
2018-01-23T02:32:27.261Z,55.00
2018-01-23T02:34:54.719Z,49.13
2018-01-23T02:37:22.184Z,48.10
2018-01-23T02:39:49.964Z,51.23
2018-01-23T02:42:17.425Z,53.30
2018-01-23T02:44:44.885Z,53.40
2018-01-23T02:47:12.947Z,53.73
2018-01-23T02:49:40.397Z,51.53
2018-01-23T02:52:10.772Z,52.93
2018-01-23T02:54:38.407Z,51.20
2018-01-23T02:57:05.860Z,53.57
2018-01-23T02:59:33.326Z,49.90
2018-01-23T03:02:01.094Z,53.50
2018-01-23T03:04:28.575Z,57.60
2018-01-23T03:06:56.034Z,54.50
2018-01-23T03:09:23.677Z,52.80
2018-01-23T03:11:51.133Z,50.60
2018-01-23T03:14:18.588Z,49.37
2018-01-23T03:16:46.367Z,51.13
2018-01-23T03:19:13.835Z,52.43
2018-01-23T03:21:41.284Z,49.43
2018-01-23T03:24:09.149Z,52.00
2018-01-23T03:26:36.615Z,48.33
2018-01-23T03:29:04.077Z,50.30
2018-01-23T03:31:32.140Z,50.10
2018-01-23T03:33:59.592Z,48.07
2018-01-23T03:36:27.046Z,50.10
2018-01-23T03:38:54.826Z,54.83
2018-01-23T03:41:22.289Z,49.23
2018-01-23T03:43:49.751Z,49.57
2018-01-23T03:46:17.518Z,50.40
2018-01-23T03:48:44.984Z,51.87
2018-01-23T03:51:12.441Z,52.20
2018-01-23T03:53:40.761Z,47.13
2018-01-23T03:56:08.219Z,50.37
2018-01-23T03:58:35.712Z,48.57
2018-01-23T04:01:03.507Z,48.40
2018-01-23T04:03:30.970Z,44.23
2018-01-23T04:05:58.430Z,47.67
2018-01-23T04:08:26.493Z,46.43
2018-01-23T04:10:53.955Z,48.97
2018-01-23T04:13:21.422Z,50.40
2018-01-23T04:15:49.156Z,48.97
2018-01-23T04:18:16.618Z,47.93
2018-01-23T04:20:44.086Z,51.27
2018-01-23T04:23:12.089Z,51.10
2018-01-23T04:25:39.544Z,48.43
2018-01-23T04:28:07.002Z,48.40
2018-01-23T04:30:34.773Z,47.40
2018-01-23T04:33:02.224Z,52.73
2018-01-23T04:35:29.669Z,50.47
2018-01-23T04:37:57.860Z,47.87
2018-01-23T04:40:25.323Z,47.80
2018-01-23T04:42:52.790Z,48.40
2018-01-23T04:45:20.548Z,49.00
2018-01-23T04:47:47.995Z,49.60
2018-01-23T04:50:15.485Z,47.70
2018-01-23T04:52:43.193Z,49.50
2018-01-23T04:55:11.385Z,43.57
2018-01-23T04:57:38.846Z,55.30
2018-01-23T05:00:06.548Z,48.37
2018-01-23T05:02:34.000Z,50.00
2018-01-23T05:05:01.464Z,43.60
2018-01-23T05:07:29.221Z,45.53
2018-01-23T05:09:56.687Z,52.00
2018-01-23T05:12:24.157Z,49.23
2018-01-23T05:14:51.863Z,53.00
2018-01-23T05:17:19.320Z,56.10
2018-01-23T05:19:46.780Z,53.17
2018-01-23T05:22:14.741Z,52.63
2018-01-23T05:24:42.187Z,53.10
2018-01-23T05:27:09.637Z,51.47
2018-01-23T05:29:38.206Z,50.97
2018-01-23T05:32:05.661Z,49.30
2018-01-23T05:34:33.109Z,49.40
2018-01-23T05:37:00.877Z,44.37
2018-01-23T05:39:28.328Z,43.60
2018-01-23T05:41:55.786Z,45.87
2018-01-23T05:44:23.568Z,48.37
2018-01-23T05:46:51.021Z,41.87
2018-01-23T05:49:18.470Z,50.37
2018-01-23T05:51:46.171Z,46.27
2018-01-23T05:54:13.621Z,54.13
2018-01-23T05:56:41.265Z,50.07
2018-01-23T05:59:08.953Z,52.70
2018-01-23T06:01:36.416Z,48.67
2018-01-23T06:04:03.871Z,53.13
2018-01-23T06:06:31.632Z,50.17
2018-01-23T06:08:59.084Z,47.40
2018-01-23T06:11:26.540Z,47.37
2018-01-23T06:13:54.325Z,49.80
2018-01-23T06:16:21.780Z,48.53
2018-01-23T06:18:49.230Z,49.97
2018-01-23T06:21:17.021Z,49.07
2018-01-23T06:23:44.477Z,49.80
2018-01-23T06:26:11.932Z,48.77
2018-01-23T06:28:39.640Z,51.23
2018-01-23T06:31:07.090Z,44.37
2018-01-23T06:33:34.549Z,46.53
2018-01-23T06:36:02.363Z,38.97
2018-01-23T06:38:30.818Z,46.80
2018-01-23T06:40:58.279Z,47.93
2018-01-23T06:43:26.000Z,45.00
2018-01-23T06:45:53.509Z,46.00
2018-01-23T06:48:20.978Z,42.00
2018-01-23T06:50:48.696Z,44.90
2018-01-23T06:53:16.153Z,43.27
2018-01-23T06:55:43.610Z,45.00
2018-01-23T06:58:11.702Z,44.77
2018-01-23T07:00:39.206Z,44.63
2018-01-23T07:03:06.661Z,45.17
2018-01-23T07:05:34.360Z,40.97
2018-01-23T07:08:01.818Z,44.17
2018-01-23T07:10:29.285Z,44.90
2018-01-23T07:12:57.054Z,45.60
2018-01-23T07:15:24.504Z,43.67
2018-01-23T07:17:51.955Z,44.90
2018-01-23T07:20:19.945Z,46.40
2018-01-23T07:22:47.417Z,38.20
2018-01-23T07:25:14.878Z,44.67
2018-01-23T07:27:42.736Z,43.20
2018-01-23T07:30:10.193Z,39.80
2018-01-23T07:32:37.657Z,42.00
2018-01-23T07:35:05.421Z,40.90
2018-01-23T07:37:32.900Z,39.20
2018-01-23T07:40:00.356Z,38.30
2018-01-23T07:42:28.102Z,41.83
2018-01-23T07:44:55.568Z,42.53
2018-01-23T07:47:23.024Z,38.83
2018-01-23T07:49:50.797Z,39.10
2018-01-23T07:52:18.263Z,37.90
2018-01-23T07:54:45.736Z,35.87
2018-01-23T07:57:13.481Z,34.47
2018-01-23T07:59:41.314Z,35.70
2018-01-23T08:02:08.761Z,34.17
2018-01-23T08:04:36.620Z,35.00
2018-01-23T08:07:04.089Z,34.43
2018-01-23T08:09:31.560Z,33.93
2018-01-23T08:11:59.459Z,33.63
2018-01-23T08:14:26.917Z,31.30
2018-01-23T08:16:54.373Z,29.23
2018-01-23T08:19:22.464Z,33.40
2018-01-23T08:21:49.979Z,31.93
2018-01-23T08:24:17.466Z,33.20
2018-01-23T08:26:45.278Z,28.67
2018-01-23T08:29:12.739Z,28.33
2018-01-23T08:31:40.193Z,27.80
2018-01-23T08:34:08.111Z,28.70
2018-01-23T08:36:35.566Z,29.30
2018-01-23T08:39:03.027Z,26.23
2018-01-23T08:41:30.887Z,24.80
2018-01-23T08:43:58.346Z,24.80
2018-01-23T08:46:25.806Z,27.37
2018-01-23T08:48:53.521Z,23.60
2018-01-23T08:51:20.982Z,26.47
2018-01-23T08:53:48.440Z,28.10
2018-01-23T08:56:16.204Z,24.03
2018-01-23T08:58:43.679Z,22.87
2018-01-23T09:01:11.514Z,26.03
2018-01-23T09:03:39.212Z,19.17
2018-01-23T09:06:06.667Z,24.10
2018-01-23T09:08:34.130Z,22.80
2018-01-23T09:11:01.885Z,22.00
2018-01-23T09:13:30.829Z,26.30
2018-01-23T09:15:58.276Z,22.00
2018-01-23T09:18:26.077Z,24.97
2018-01-23T09:20:53.521Z,24.80
2018-01-23T09:23:20.977Z,23.13
2018-01-23T09:25:48.756Z,24.13
2018-01-23T09:28:16.204Z,20.23
2018-01-23T09:30:43.662Z,27.10
2018-01-23T09:33:11.481Z,24.93
2018-01-23T09:35:38.944Z,24.93
2018-01-23T09:38:06.405Z,18.67
2018-01-23T09:40:34.165Z,23.97
2018-01-23T09:43:01.627Z,18.77
2018-01-23T09:45:29.093Z,24.00
2018-01-23T09:47:56.852Z,18.17
2018-01-23T09:50:24.314Z,19.70
2018-01-23T09:52:51.812Z,21.40
2018-01-23T09:55:19.545Z,20.23
2018-01-23T09:57:47.012Z,19.53
2018-01-23T10:00:14.467Z,19.93
2018-01-23T10:02:42.837Z,19.90
2018-01-23T10:05:10.296Z,16.00
2018-01-23T10:07:37.748Z,20.93
2018-01-23T10:10:05.529Z,16.87
2018-01-23T10:12:32.995Z,17.80
2018-01-23T10:15:00.461Z,17.27
2018-01-23T10:17:28.217Z,13.53
2018-01-23T10:19:55.685Z,17.50
2018-01-23T10:22:23.147Z,17.70
2018-01-23T10:24:51.021Z,17.67
2018-01-23T10:27:18.477Z,13.77
2018-01-23T10:29:45.934Z,17.83
2018-01-23T10:32:13.594Z,18.40
2018-01-23T10:34:41.052Z,14.73
2018-01-23T10:37:08.508Z,15.57
2018-01-23T10:39:36.264Z,12.73
2018-01-23T10:42:03.724Z,19.10
2018-01-23T10:44:31.182Z,14.97
2018-01-23T10:46:58.972Z,12.60
2018-01-23T10:49:26.447Z,16.30
2018-01-23T10:51:53.939Z,15.53
2018-01-23T10:54:21.646Z,16.00
2018-01-23T10:56:49.106Z,16.47
2018-01-23T10:59:16.557Z,15.57
2018-01-23T11:01:44.341Z,17.40
2018-01-23T11:04:12.176Z,16.80
2018-01-23T11:06:39.629Z,16.40
2018-01-23T11:09:07.649Z,13.53
2018-01-23T11:11:35.109Z,13.13
2018-01-23T11:14:02.562Z,14.20
2018-01-23T11:16:30.322Z,14.57
2018-01-23T11:18:57.776Z,15.50
2018-01-23T11:21:25.235Z,12.87
2018-01-23T11:23:53.325Z,14.67
2018-01-23T11:26:20.781Z,13.83
2018-01-23T11:28:48.232Z,14.07
2018-01-23T11:31:16.001Z,14.90
2018-01-23T11:33:43.461Z,12.87
2018-01-23T11:36:10.909Z,13.30
2018-01-23T11:38:38.689Z,14.87
2018-01-23T11:41:06.153Z,14.20
2018-01-23T11:43:33.622Z,15.57
2018-01-23T11:46:01.360Z,13.73
2018-01-23T11:48:28.817Z,15.10
2018-01-23T11:50:56.271Z,15.40
2018-01-23T11:53:24.074Z,14.00
2018-01-23T11:55:51.535Z,15.40
2018-01-23T12:05:03.589Z,16.43
2018-01-23T12:07:31.049Z,17.67
2018-01-23T12:09:58.508Z,16.10
2018-01-23T12:12:26.568Z,17.03
2018-01-23T12:14:54.024Z,17.27
2018-01-23T12:17:21.477Z,16.00
2018-01-23T12:19:49.267Z,17.60
2018-01-23T12:22:16.729Z,17.30
2018-01-23T12:24:44.229Z,15.73
2018-01-23T12:27:12.270Z,15.53
2018-01-23T12:29:39.728Z,16.07
2018-01-23T12:32:07.193Z,16.67
2018-01-23T12:34:34.941Z,16.60
2018-01-23T12:37:02.404Z,16.20
2018-01-23T12:39:29.865Z,17.40
2018-01-23T12:41:57.624Z,15.57
2018-01-23T12:44:25.094Z,17.93
2018-01-23T12:46:52.549Z,15.63
2018-01-23T12:49:20.320Z,17.47
2018-01-23T12:51:47.768Z,17.60
2018-01-23T12:54:15.217Z,16.17
2018-01-23T12:56:42.957Z,17.20
2018-01-23T12:59:10.410Z,18.53
2018-01-23T13:01:37.873Z,16.93
2018-01-23T13:04:05.701Z,17.33
2018-01-23T13:06:33.543Z,17.10
2018-01-23T13:09:00.997Z,17.70
2018-01-23T13:11:29.005Z,15.20
2018-01-23T13:13:56.460Z,16.47
2018-01-23T13:16:23.905Z,16.60
2018-01-23T13:18:51.679Z,15.57
2018-01-23T13:21:19.204Z,14.27
2018-01-23T13:23:46.655Z,15.10
2018-01-23T13:26:14.388Z,13.63
2018-01-23T13:28:41.845Z,15.80
2018-01-23T13:31:09.340Z,13.97
2018-01-23T13:33:37.050Z,14.50
2018-01-23T13:36:04.517Z,14.27
2018-01-23T13:38:31.978Z,14.30
2018-01-23T13:40:59.767Z,13.93
2018-01-23T13:43:27.226Z,15.70
2018-01-23T13:45:54.674Z,17.00
2018-01-23T13:48:22.420Z,16.53
2018-01-23T13:50:49.878Z,15.00
2018-01-23T13:53:17.341Z,14.90
2018-01-23T13:55:45.115Z,13.43
2018-01-23T13:58:12.576Z,14.47
2018-01-23T14:00:40.040Z,13.53
2018-01-23T14:03:07.801Z,14.97
2018-01-23T14:05:35.264Z,13.10
2018-01-23T14:08:03.410Z,14.00
2018-01-23T14:10:31.354Z,14.10
2018-01-23T14:12:58.811Z,14.70
2018-01-23T14:15:26.280Z,14.33
2018-01-23T14:17:54.038Z,16.07
2018-01-23T14:20:21.492Z,15.07
2018-01-23T14:22:48.965Z,14.33
2018-01-23T14:25:16.785Z,14.57
2018-01-23T14:27:44.239Z,12.73
2018-01-23T14:30:11.697Z,12.97
2018-01-23T14:32:39.772Z,12.67
2018-01-23T14:35:07.225Z,14.57
2018-01-23T14:37:34.677Z,13.07
2018-01-23T14:40:02.463Z,13.70
2018-01-23T14:42:29.925Z,15.23
2018-01-23T14:44:57.373Z,14.73
2018-01-23T14:47:25.461Z,13.87
2018-01-23T14:49:52.944Z,12.90
2018-01-23T14:52:20.396Z,12.77
2018-01-23T14:54:48.152Z,14.30
2018-01-23T14:57:15.621Z,13.30
2018-01-23T14:59:43.076Z,13.90
2018-01-23T15:02:10.824Z,13.90
2018-01-23T15:04:38.286Z,14.67
2018-01-23T15:07:05.756Z,15.30
2018-01-23T15:09:35.966Z,15.67
2018-01-23T15:12:03.539Z,14.60
2018-01-23T15:14:30.997Z,14.13
2018-01-23T15:16:58.964Z,14.23
2018-01-23T15:19:26.417Z,14.00
2018-01-23T15:21:53.880Z,13.70
2018-01-23T15:24:21.652Z,16.70
2018-01-23T15:26:49.113Z,16.30
2018-01-23T15:29:16.575Z,16.33
2018-01-23T15:31:44.354Z,15.37
2018-01-23T15:34:11.815Z,16.43
2018-01-23T15:36:39.276Z,15.70
2018-01-23T15:39:07.029Z,15.07
2018-01-23T15:41:34.761Z,15.03
2018-01-23T15:44:02.208Z,16.30
2018-01-23T15:46:30.018Z,14.03
2018-01-23T15:48:57.464Z,17.10
2018-01-23T15:51:24.922Z,16.70
2018-01-23T15:53:52.683Z,16.63
2018-01-23T15:56:20.109Z,15.37
2018-01-23T15:58:47.573Z,18.60
2018-01-23T16:01:15.272Z,18.23
2018-01-23T16:03:42.732Z,17.10
2018-01-23T16:06:10.190Z,15.70
2018-01-23T16:08:38.086Z,16.60
2018-01-23T16:11:08.077Z,22.00
2018-01-23T16:13:35.526Z,16.10
2018-01-23T16:16:03.255Z,17.30
2018-01-23T16:18:30.724Z,15.77
2018-01-23T16:20:58.172Z,16.27
2018-01-23T16:23:25.920Z,15.57
2018-01-23T16:25:53.385Z,16.40
2018-01-23T16:28:20.855Z,14.37
2018-01-23T16:30:48.598Z,15.63
2018-01-23T16:33:16.056Z,16.33
2018-01-23T16:35:43.521Z,15.83
2018-01-23T16:38:11.291Z,17.50
2018-01-23T16:40:38.756Z,14.87
2018-01-23T16:43:06.215Z,16.30
2018-01-23T16:45:33.973Z,15.83
2018-01-23T16:48:01.430Z,15.10
2018-01-23T16:50:28.899Z,15.10
2018-01-23T16:52:58.519Z,17.40
2018-01-23T16:55:25.968Z,15.90
2018-01-23T16:57:53.419Z,16.23
2018-01-23T17:00:21.190Z,15.70
2018-01-23T17:02:48.648Z,17.50
2018-01-23T17:05:16.101Z,17.93
2018-01-23T17:07:43.917Z,18.53
2018-01-23T17:10:11.376Z,20.23
2018-01-23T17:12:41.103Z,20.90
2018-01-23T17:15:09.025Z,21.37
2018-01-23T17:17:37.479Z,21.27
2018-01-23T17:20:04.927Z,20.77
2018-01-23T17:22:32.943Z,21.60
2018-01-23T17:25:00.409Z,23.90
2018-01-23T17:27:27.887Z,23.43
2018-01-23T17:29:55.625Z,18.70
2018-01-23T17:32:23.086Z,20.47
2018-01-23T17:34:50.575Z,18.10
2018-01-23T17:37:18.312Z,20.63
2018-01-23T17:39:45.760Z,21.20
2018-01-23T17:42:13.208Z,22.77
2018-01-23T17:44:40.847Z,21.30
2018-01-23T17:47:08.305Z,22.27
2018-01-23T17:49:35.766Z,23.73
2018-01-23T17:52:03.375Z,22.50
2018-01-23T17:54:30.825Z,20.30
2018-01-23T17:56:58.292Z,20.63
2018-01-23T17:59:26.102Z,23.30
2018-01-23T18:01:53.556Z,21.27
2018-01-23T18:04:21.013Z,21.50
2018-01-23T18:06:48.752Z,20.60
2018-01-23T18:09:16.204Z,22.20
2018-01-23T18:11:43.648Z,26.50
2018-01-23T18:14:12.317Z,25.10
2018-01-23T18:16:39.778Z,19.50
2018-01-23T18:19:07.229Z,19.30
2018-01-23T18:21:35.047Z,20.23
2018-01-23T18:24:02.586Z,21.40
2018-01-23T18:26:30.057Z,22.10
2018-01-23T18:28:57.888Z,22.63
2018-01-23T18:31:25.347Z,23.03
2018-01-23T18:33:52.798Z,22.27
2018-01-23T18:36:20.740Z,22.33
2018-01-23T18:38:48.227Z,27.13
2018-01-23T18:41:15.693Z,25.97
2018-01-23T18:43:43.419Z,23.50
2018-01-23T18:46:10.887Z,26.33
2018-01-23T18:48:38.397Z,24.83
2018-01-23T18:51:06.115Z,27.30
2018-01-23T18:53:33.613Z,32.10
2018-01-23T18:56:01.074Z,29.77
2018-01-23T18:58:29.096Z,30.37
2018-01-23T19:00:56.686Z,28.80
2018-01-23T19:03:24.168Z,24.97
2018-01-23T19:05:52.092Z,27.93
2018-01-23T19:08:19.548Z,28.27
2018-01-23T19:10:47.001Z,29.63
2018-01-23T19:13:15.065Z,25.60
2018-01-23T19:15:42.945Z,26.70
2018-01-23T19:18:10.410Z,28.60
2018-01-23T19:20:39.729Z,34.60
2018-01-23T19:23:09.120Z,33.37
2018-01-23T19:25:38.555Z,26.60
2018-01-23T19:28:08.161Z,51.37
2018-01-23T19:30:37.474Z,35.13
2018-01-23T19:33:05.921Z,30.90
2018-01-23T19:35:35.407Z,30.40
2018-01-23T19:38:02.969Z,30.90
2018-01-23T19:40:30.439Z,28.70
2018-01-23T19:42:58.095Z,29.50
2018-01-23T19:45:26.933Z,28.33
2018-01-23T19:47:54.389Z,26.90
2018-01-23T19:50:22.180Z,28.93
2018-01-23T19:52:49.625Z,27.83
2018-01-23T19:55:18.144Z,25.30
2018-01-23T19:57:46.197Z,28.30
2018-01-23T20:00:13.667Z,25.93
2018-01-23T20:09:24.860Z,29.27
2018-01-23T20:11:52.329Z,27.10
2018-01-23T20:14:19.958Z,29.17
2018-01-23T20:16:48.201Z,32.47
2018-01-23T20:19:15.690Z,32.63
2018-01-23T20:21:43.143Z,28.03
2018-01-23T20:24:11.152Z,30.03
2018-01-23T20:26:38.624Z,33.00
2018-01-23T20:29:06.085Z,36.87
2018-01-23T20:31:33.840Z,29.97
2018-01-23T20:34:01.311Z,31.07
2018-01-23T20:36:28.763Z,31.33
2018-01-23T20:38:56.528Z,28.57
2018-01-23T20:41:24.021Z,31.20
2018-01-23T20:43:51.477Z,30.20
2018-01-23T20:46:19.208Z,29.53
2018-01-23T20:48:46.655Z,27.27
2018-01-23T20:51:14.113Z,29.00
2018-01-23T20:53:42.050Z,29.67
2018-01-23T20:56:09.523Z,28.00
2018-01-23T20:58:36.985Z,29.83
2018-01-23T21:01:04.904Z,28.50
2018-01-23T21:03:32.374Z,26.13
2018-01-23T21:05:59.840Z,28.40
2018-01-23T21:08:27.588Z,28.23
2018-01-23T21:10:55.069Z,29.53
2018-01-23T21:13:22.525Z,28.17
2018-01-23T21:15:50.261Z,30.63
2018-01-23T21:18:18.129Z,28.03
2018-01-23T21:20:45.588Z,28.63
2018-01-23T21:23:13.446Z,28.10
2018-01-23T21:25:40.904Z,28.93
2018-01-23T21:28:08.356Z,52.10
2018-01-23T21:30:36.261Z,39.97
2018-01-23T21:33:03.720Z,33.40
2018-01-23T21:35:31.173Z,31.87
2018-01-23T21:37:59.252Z,29.90
2018-01-23T21:40:26.708Z,28.77
2018-01-23T21:42:54.157Z,28.90
2018-01-23T21:45:21.938Z,32.83
2018-01-23T21:47:49.400Z,29.03
2018-01-23T21:50:16.853Z,29.33
2018-01-23T21:52:44.798Z,28.40
2018-01-23T21:55:12.257Z,29.70
2018-01-23T21:57:39.712Z,30.13
2018-01-23T22:00:09.693Z,28.73
2018-01-23T22:02:37.148Z,28.90
2018-01-23T22:05:04.597Z,29.00
2018-01-23T22:07:32.453Z,29.30
2018-01-23T22:09:59.901Z,28.50
2018-01-23T22:12:27.353Z,30.17
2018-01-23T22:14:55.163Z,30.20
2018-01-23T22:17:22.614Z,28.17
2018-01-23T22:19:50.081Z,29.10
2018-01-23T22:22:17.829Z,29.87
2018-01-23T22:24:45.282Z,31.00
2018-01-23T22:27:12.780Z,31.20
2018-01-23T22:29:40.498Z,29.97
2018-01-23T22:32:07.959Z,32.10
2018-01-23T22:34:35.420Z,31.70
2018-01-23T22:37:03.211Z,31.73
2018-01-23T22:39:30.669Z,30.07
2018-01-23T22:41:58.128Z,32.07
2018-01-23T22:44:25.890Z,31.27
2018-01-23T22:46:53.344Z,31.00
2018-01-23T22:49:20.805Z,33.83
2018-01-23T22:51:48.594Z,30.00
2018-01-23T22:54:16.050Z,32.20
2018-01-23T22:56:43.524Z,31.70
2018-01-23T22:59:11.576Z,31.10
2018-01-23T23:01:39.183Z,32.73
2018-01-23T23:04:06.649Z,33.60
2018-01-23T23:06:34.565Z,33.30
2018-01-23T23:09:02.016Z,32.10
2018-01-23T23:11:29.481Z,35.20
2018-01-23T23:13:57.209Z,33.07
2018-01-23T23:16:24.669Z,31.40
2018-01-23T23:18:52.125Z,32.70
2018-01-23T23:21:19.932Z,30.90
2018-01-23T23:23:47.385Z,30.50
2018-01-23T23:26:14.850Z,32.73
2018-01-23T23:28:42.625Z,34.23
2018-01-23T23:31:10.085Z,34.93
2018-01-23T23:33:37.542Z,36.50
2018-01-23T23:36:05.751Z,36.47
2018-01-23T23:38:33.209Z,36.10
2018-01-23T23:41:00.672Z,34.37
2018-01-23T23:43:28.389Z,35.67
2018-01-23T23:45:55.844Z,35.93
2018-01-23T23:48:23.298Z,38.17
2018-01-23T23:50:51.230Z,39.60
2018-01-23T23:53:18.683Z,37.77
2018-01-23T23:55:46.133Z,38.43
2018-01-23T23:58:13.985Z,34.33
